sensor_id;sensor_type;location;lat;lon;timestamp;pressure;altitude;pressure_sealevel;temperature;humidity
66668;BME280;57205;51.438;-2.006;2022-09-21T00:00:08;101976.25;;;13.78;74.92
66668;BME280;57205;51.438;-2.006;2022-09-21T00:02:33;101974.06;;;13.75;74.74
66668;BME280;57205;51.438;-2.006;2022-09-21T00:04:59;101971.06;;;13.71;74.69
66668;BME280;57205;51.438;-2.006;2022-09-21T00:07:24;101971.88;;;13.71;75.07
66668;BME280;57205;51.438;-2.006;2022-09-21T00:09:50;101961.94;;;13.72;75.10
66668;BME280;57205;51.438;-2.006;2022-09-21T00:12:15;101969.75;;;13.73;75.16
66668;BME280;57205;51.438;-2.006;2022-09-21T00:14:41;101971.38;;;13.75;75.39
66668;BME280;57205;51.438;-2.006;2022-09-21T00:17:07;101967.88;;;13.74;75.56
66668;BME280;57205;51.438;-2.006;2022-09-21T00:19:34;101969.47;;;13.75;75.60
66668;BME280;57205;51.438;-2.006;2022-09-21T00:21:59;101973.81;;;13.76;75.60
66668;BME280;57205;51.438;-2.006;2022-09-21T00:24:25;101970.31;;;13.76;75.75
66668;BME280;57205;51.438;-2.006;2022-09-21T00:26:50;101975.69;;;13.76;75.92
66668;BME280;57205;51.438;-2.006;2022-09-21T00:29:16;101976.75;;;13.75;76.14
66668;BME280;57205;51.438;-2.006;2022-09-21T00:31:41;101981.88;;;13.76;76.30
66668;BME280;57205;51.438;-2.006;2022-09-21T00:34:06;101976.75;;;13.75;76.47
66668;BME280;57205;51.438;-2.006;2022-09-21T00:36:32;101975.94;;;13.74;76.50
66668;BME280;57205;51.438;-2.006;2022-09-21T00:38:59;101971.38;;;13.75;76.26
66668;BME280;57205;51.438;-2.006;2022-09-21T00:41:27;101974.88;;;13.75;76.63
66668;BME280;57205;51.438;-2.006;2022-09-21T00:44:31;101966.78;;;13.75;76.68
66668;BME280;57205;51.438;-2.006;2022-09-21T00:47:10;101975.44;;;13.77;76.73
66668;BME280;57205;51.438;-2.006;2022-09-21T00:49:37;101969.25;;;13.77;76.64
66668;BME280;57205;51.438;-2.006;2022-09-21T00:52:05;101973.81;;;13.76;76.77
66668;BME280;57205;51.438;-2.006;2022-09-21T00:54:35;101964.09;;;13.75;77.02
66668;BME280;57205;51.438;-2.006;2022-09-21T00:57:02;101963.88;;;13.77;77.08
66668;BME280;57205;51.438;-2.006;2022-09-21T00:59:30;101974.63;;;13.77;77.16
66668;BME280;57205;51.438;-2.006;2022-09-21T01:01:57;101973.81;;;13.76;77.67
66668;BME280;57205;51.438;-2.006;2022-09-21T01:04:24;101977.56;;;13.75;77.51
66668;BME280;57205;51.438;-2.006;2022-09-21T01:06:50;101973.25;;;13.74;77.88
66668;BME280;57205;51.438;-2.006;2022-09-21T01:09:17;101967.31;;;13.72;78.16
66668;BME280;57205;51.438;-2.006;2022-09-21T01:14:19;101970.81;;;13.73;78.05
66668;BME280;57205;51.438;-2.006;2022-09-21T01:17:04;101965.44;;;13.73;78.07
66668;BME280;57205;51.438;-2.006;2022-09-21T01:30:18;101972.72;;;13.77;77.80
66668;BME280;57205;51.438;-2.006;2022-09-21T01:33:37;101970.31;;;13.76;77.96
66668;BME280;57205;51.438;-2.006;2022-09-21T01:36:07;101967.06;;;13.73;78.14
66668;BME280;57205;51.438;-2.006;2022-09-21T01:38:44;101964.63;;;13.72;78.29
66668;BME280;57205;51.438;-2.006;2022-09-21T01:41:12;101964.63;;;13.72;78.63
66668;BME280;57205;51.438;-2.006;2022-09-21T01:43:42;101966.75;;;13.70;78.83
66668;BME280;57205;51.438;-2.006;2022-09-21T01:46:20;101966.19;;;13.68;79.03
66668;BME280;57205;51.438;-2.006;2022-09-21T01:48:51;101963.75;;;13.66;79.05
66668;BME280;57205;51.438;-2.006;2022-09-21T01:51:19;101964.56;;;13.67;79.05
66668;BME280;57205;51.438;-2.006;2022-09-21T01:53:58;101963.75;;;13.66;79.36
66668;BME280;57205;51.438;-2.006;2022-09-21T01:56:32;101964.56;;;13.67;78.92
66668;BME280;57205;51.438;-2.006;2022-09-21T02:01:39;101968.63;;;13.69;78.77
66668;BME280;57205;51.438;-2.006;2022-09-21T02:04:09;101966.19;;;13.68;79.33
66668;BME280;57205;51.438;-2.006;2022-09-21T02:06:40;101964.56;;;13.67;79.20
66668;BME280;57205;51.438;-2.006;2022-09-21T02:09:08;101968.31;;;13.66;79.38
66668;BME280;57205;51.438;-2.006;2022-09-21T02:11:34;101964.81;;;13.65;79.33
66668;BME280;57205;51.438;-2.006;2022-09-21T02:14:03;101962.13;;;13.65;79.76
66668;BME280;57205;51.438;-2.006;2022-09-21T02:24:32;101957.50;;;13.61;80.21
66668;BME280;57205;51.438;-2.006;2022-09-21T02:35:50;101945.13;;;13.60;80.01
66668;BME280;57205;51.438;-2.006;2022-09-21T02:41:18;101942.44;;;13.60;80.00
66668;BME280;57205;51.438;-2.006;2022-09-21T02:43:48;101938.16;;;13.64;79.62
66668;BME280;57205;51.438;-2.006;2022-09-21T02:46:29;101934.91;;;13.62;79.64
66668;BME280;57205;51.438;-2.006;2022-09-21T02:49:02;101938.66;;;13.61;79.95
66668;BME280;57205;51.438;-2.006;2022-09-21T02:51:37;101933.28;;;13.61;80.09
66668;BME280;57205;51.438;-2.006;2022-09-21T02:54:07;101928.72;;;13.61;79.98
66668;BME280;57205;51.438;-2.006;2022-09-21T02:56:35;101934.91;;;13.62;80.08
66668;BME280;57205;51.438;-2.006;2022-09-21T02:59:03;101930.34;;;13.62;79.92
66668;BME280;57205;51.438;-2.006;2022-09-21T03:01:31;101927.09;;;13.60;80.02
66668;BME280;57205;51.438;-2.006;2022-09-21T03:03:57;101927.66;;;13.62;79.88
66668;BME280;57205;51.438;-2.006;2022-09-21T03:06:23;101929.53;;;13.62;79.98
66668;BME280;57205;51.438;-2.006;2022-09-21T03:08:48;101935.72;;;13.62;80.24
66668;BME280;57205;51.438;-2.006;2022-09-21T03:11:17;101928.22;;;13.64;80.23
66668;BME280;57205;51.438;-2.006;2022-09-21T03:13:43;101928.22;;;13.64;80.29
66668;BME280;57205;51.438;-2.006;2022-09-21T03:16:10;101925.78;;;13.63;80.32
66668;BME280;57205;51.438;-2.006;2022-09-21T03:18:35;101927.91;;;13.61;80.35
66668;BME280;57205;51.438;-2.006;2022-09-21T03:21:01;101928.72;;;13.61;80.49
66668;BME280;57205;51.438;-2.006;2022-09-21T03:23:27;101927.66;;;13.62;80.28
66668;BME280;57205;51.438;-2.006;2022-09-21T03:25:53;101928.47;;;13.63;80.60
66668;BME280;57205;51.438;-2.006;2022-09-21T03:28:19;101928.22;;;13.64;80.45
66668;BME280;57205;51.438;-2.006;2022-09-21T03:30:45;101923.09;;;13.63;80.98
66668;BME280;57205;51.438;-2.006;2022-09-21T03:33:12;101919.31;;;13.64;80.80
66668;BME280;57205;51.438;-2.006;2022-09-21T03:35:38;101915.03;;;13.63;81.11
66668;BME280;57205;51.438;-2.006;2022-09-21T03:38:04;101909.91;;;13.61;80.83
66668;BME280;57205;51.438;-2.006;2022-09-21T03:40:30;101903.16;;;13.59;81.20
66668;BME280;57205;51.438;-2.006;2022-09-21T03:42:55;101905.84;;;13.59;80.85
66668;BME280;57205;51.438;-2.006;2022-09-21T03:45:21;101909.59;;;13.58;80.93
66668;BME280;57205;51.438;-2.006;2022-09-21T03:47:47;101911.72;;;13.56;80.88
66668;BME280;57205;51.438;-2.006;2022-09-21T03:50:13;101903.09;;;13.54;80.77
66668;BME280;57205;51.438;-2.006;2022-09-21T03:52:39;101895.03;;;13.54;80.79
66668;BME280;57205;51.438;-2.006;2022-09-21T03:55:06;101893.66;;;13.51;80.59
66668;BME280;57205;51.438;-2.006;2022-09-21T03:57:33;101889.34;;;13.50;80.74
66668;BME280;57205;51.438;-2.006;2022-09-21T03:59:59;101898.47;;;13.49;80.76
66668;BME280;57205;51.438;-2.006;2022-09-21T04:02:27;101894.94;;;13.49;81.00
66668;BME280;57205;51.438;-2.006;2022-09-21T04:04:52;101896.03;;;13.48;80.87
66668;BME280;57205;51.438;-2.006;2022-09-21T04:07:18;101892.78;;;13.46;81.06
66668;BME280;57205;51.438;-2.006;2022-09-21T04:09:43;101884.16;;;13.44;81.36
66668;BME280;57205;51.438;-2.006;2022-09-21T04:12:08;101887.91;;;13.43;81.59
66668;BME280;57205;51.438;-2.006;2022-09-21T04:14:34;101896.25;;;13.41;81.71
66668;BME280;57205;51.438;-2.006;2022-09-21T04:17:01;101897.53;;;13.39;81.87
66668;BME280;57205;51.438;-2.006;2022-09-21T04:19:26;101896.97;;;13.37;82.46
66668;BME280;57205;51.438;-2.006;2022-09-21T04:21:51;101895.34;;;13.36;82.19
66668;BME280;57205;51.438;-2.006;2022-09-21T04:24:17;101895.84;;;13.33;82.53
66668;BME280;57205;51.438;-2.006;2022-09-21T04:26:44;101887.78;;;13.33;82.92
66668;BME280;57205;51.438;-2.006;2022-09-21T04:29:11;101886.97;;;13.32;82.82
66668;BME280;57205;51.438;-2.006;2022-09-21T04:31:37;101893.72;;;13.35;82.61
66668;BME280;57205;51.438;-2.006;2022-09-21T04:34:02;101898.03;;;13.36;82.72
66668;BME280;57205;51.438;-2.006;2022-09-21T04:36:28;101891.03;;;13.35;82.95
66668;BME280;57205;51.438;-2.006;2022-09-21T04:38:53;101884.53;;;13.31;82.99
66668;BME280;57205;51.438;-2.006;2022-09-21T04:41:19;101886.41;;;13.30;83.17
66668;BME280;57205;51.438;-2.006;2022-09-21T04:43:48;101885.59;;;13.30;83.58
66668;BME280;57205;51.438;-2.006;2022-09-21T04:46:15;101886.91;;;13.27;83.69
66668;BME280;57205;51.438;-2.006;2022-09-21T04:48:41;101893.09;;;13.28;83.40
66668;BME280;57205;51.438;-2.006;2022-09-21T04:51:08;101887.91;;;13.21;83.16
66668;BME280;57205;51.438;-2.006;2022-09-21T04:53:35;101892.97;;;13.18;83.35
66668;BME280;57205;51.438;-2.006;2022-09-21T04:56:02;101889.16;;;13.14;83.19
66668;BME280;57205;51.438;-2.006;2022-09-21T04:58:28;101894.78;;;13.12;83.38
66668;BME280;57205;51.438;-2.006;2022-09-21T05:00:53;101899.84;;;13.09;83.91
66668;BME280;57205;51.438;-2.006;2022-09-21T05:03:20;101887.63;;;13.01;83.68
66668;BME280;57205;51.438;-2.006;2022-09-21T05:05:54;101898.88;;;12.98;84.31
66668;BME280;57205;51.438;-2.006;2022-09-21T05:08:22;101895.88;;;12.95;84.30
66668;BME280;57205;51.438;-2.006;2022-09-21T05:11:07;101895.06;;;12.94;84.44
66668;BME280;57205;51.438;-2.006;2022-09-21T05:13:32;101896.09;;;12.93;84.57
66668;BME280;57205;51.438;-2.006;2022-09-21T05:15:58;101892.88;;;12.91;84.78
66668;BME280;57205;51.438;-2.006;2022-09-21T05:18:23;101896.88;;;12.89;84.79
66668;BME280;57205;51.438;-2.006;2022-09-21T05:20:56;101892.78;;;12.86;84.57
66668;BME280;57205;51.438;-2.006;2022-09-21T05:23:22;101898.94;;;12.82;84.80
66668;BME280;57205;51.438;-2.006;2022-09-21T05:25:48;101895.03;;;12.72;84.93
66668;BME280;57205;51.438;-2.006;2022-09-21T05:28:15;101890.59;;;12.61;85.10
66668;BME280;57205;51.438;-2.006;2022-09-21T05:30:43;101892.59;;;12.54;85.40
66668;BME280;57205;51.438;-2.006;2022-09-21T05:33:12;101907.81;;;12.49;85.31
66668;BME280;57205;51.438;-2.006;2022-09-21T05:38:18;101903.28;;;12.33;85.62
66668;BME280;57205;51.438;-2.006;2022-09-21T05:40:44;101908.56;;;12.28;85.97
66668;BME280;57205;51.438;-2.006;2022-09-21T05:43:12;101905.47;;;12.19;86.12
66668;BME280;57205;51.438;-2.006;2022-09-21T05:45:42;101912.88;;;12.12;86.22
66668;BME280;57205;51.438;-2.006;2022-09-21T05:48:17;101911.38;;;12.05;86.63
66668;BME280;57205;51.438;-2.006;2022-09-21T05:51:00;101923.41;;;12.02;86.64
66668;BME280;57205;51.438;-2.006;2022-09-21T05:53:55;101922.16;;;11.93;86.64
66668;BME280;57205;51.438;-2.006;2022-09-21T05:56:42;101920.22;;;11.89;86.69
66668;BME280;57205;51.438;-2.006;2022-09-21T06:05:09;101917.25;;;11.73;86.76
66668;BME280;57205;51.438;-2.006;2022-09-21T06:07:35;101921.22;;;11.71;86.95
66668;BME280;57205;51.438;-2.006;2022-09-21T06:10:01;101919.88;;;11.68;87.01
66668;BME280;57205;51.438;-2.006;2022-09-21T06:12:26;101931.88;;;11.66;87.19
66668;BME280;57205;51.438;-2.006;2022-09-21T06:14:52;101923.81;;;11.66;87.26
66668;BME280;57205;51.438;-2.006;2022-09-21T06:17:18;101927.53;;;11.65;87.37
66668;BME280;57205;51.438;-2.006;2022-09-21T06:19:43;101927.53;;;11.65;87.27
66668;BME280;57205;51.438;-2.006;2022-09-21T06:22:08;101928.69;;;11.69;87.67
66668;BME280;57205;51.438;-2.006;2022-09-21T06:24:34;101929.03;;;11.72;87.49
66668;BME280;57205;51.438;-2.006;2022-09-21T06:26:59;101931.25;;;11.75;87.93
66668;BME280;57205;51.438;-2.006;2022-09-21T06:29:25;101930.50;;;11.80;87.19
66668;BME280;57205;51.438;-2.006;2022-09-21T06:31:51;101934.34;;;11.84;87.06
66668;BME280;57205;51.438;-2.006;2022-09-21T06:34:17;101932.81;;;11.88;87.26
66668;BME280;57205;51.438;-2.006;2022-09-21T06:36:42;101928.84;;;11.91;87.14
66668;BME280;57205;51.438;-2.006;2022-09-21T06:39:10;101936.72;;;11.97;86.54
66668;BME280;57205;51.438;-2.006;2022-09-21T06:41:35;101938.72;;;12.02;85.84
66668;BME280;57205;51.438;-2.006;2022-09-21T06:44:01;101928.88;;;12.07;85.76
66668;BME280;57205;51.438;-2.006;2022-09-21T06:46:26;101934.81;;;12.09;85.59
66668;BME280;57205;51.438;-2.006;2022-09-21T06:48:52;101933.03;;;12.15;84.82
66668;BME280;57205;51.438;-2.006;2022-09-21T06:51:18;101932.03;;;12.21;84.70
66668;BME280;57205;51.438;-2.006;2022-09-21T06:53:45;101941.00;;;12.26;84.18
66668;BME280;57205;51.438;-2.006;2022-09-21T06:56:10;101937.34;;;12.32;83.77
66668;BME280;57205;51.438;-2.006;2022-09-21T06:58:36;101933.69;;;12.38;83.32
66668;BME280;57205;51.438;-2.006;2022-09-21T07:01:13;101932.56;;;12.51;82.84
66668;BME280;57205;51.438;-2.006;2022-09-21T07:03:40;101937.13;;;12.67;82.62
66668;BME280;57205;51.438;-2.006;2022-09-21T07:06:07;101938.41;;;12.81;81.61
66668;BME280;57205;51.438;-2.006;2022-09-21T07:08:33;101938.78;;;12.90;80.57
66668;BME280;57205;51.438;-2.006;2022-09-21T07:11:00;101945.78;;;12.91;80.11
66668;BME280;57205;51.438;-2.006;2022-09-21T07:13:27;101944.25;;;12.95;79.35
66668;BME280;57205;51.438;-2.006;2022-09-21T07:15:53;101945.84;;;12.96;79.62
66668;BME280;57205;51.438;-2.006;2022-09-21T07:18:18;101943.91;;;13.08;79.33
66668;BME280;57205;51.438;-2.006;2022-09-21T07:20:44;101945.69;;;13.19;78.91
66668;BME280;57205;51.438;-2.006;2022-09-21T07:23:17;101946.06;;;13.27;79.15
66668;BME280;57205;51.438;-2.006;2022-09-21T07:25:44;101940.34;;;13.45;78.65
66668;BME280;57205;51.438;-2.006;2022-09-21T07:28:11;101940.06;;;13.63;77.91
66668;BME280;57205;51.438;-2.006;2022-09-21T07:30:38;101942.50;;;13.65;77.87
66668;BME280;57205;51.438;-2.006;2022-09-21T07:33:04;101942.34;;;13.77;77.61
66668;BME280;57205;51.438;-2.006;2022-09-21T07:35:30;101941.63;;;13.86;77.51
66668;BME280;57205;51.438;-2.006;2022-09-21T07:38:04;101949.44;;;14.14;77.20
66668;BME280;57205;51.438;-2.006;2022-09-21T07:40:30;101942.19;;;14.78;77.13
66668;BME280;57205;51.438;-2.006;2022-09-21T07:42:57;101935.94;;;15.71;73.46
66668;BME280;57205;51.438;-2.006;2022-09-21T07:45:23;101930.31;;;16.78;69.66
66668;BME280;57205;51.438;-2.006;2022-09-21T07:47:50;101929.50;;;17.67;66.21
66668;BME280;57205;51.438;-2.006;2022-09-21T07:50:19;101938.41;;;18.49;62.96
66668;BME280;57205;51.438;-2.006;2022-09-21T07:52:44;101929.03;;;19.18;60.68
66668;BME280;57205;51.438;-2.006;2022-09-21T07:55:10;101933.50;;;19.75;58.02
66668;BME280;57205;51.438;-2.006;2022-09-21T07:57:35;101924.72;;;20.33;56.35
66668;BME280;57205;51.438;-2.006;2022-09-21T08:00:19;101926.06;;;20.95;54.19
66668;BME280;57205;51.438;-2.006;2022-09-21T08:02:44;101925.56;;;21.48;51.75
66668;BME280;57205;51.438;-2.006;2022-09-21T08:05:10;101917.34;;;21.61;51.73
66668;BME280;57205;51.438;-2.006;2022-09-21T08:07:35;101915.28;;;21.94;51.04
66668;BME280;57205;51.438;-2.006;2022-09-21T08:10:00;101924.84;;;22.27;50.27
66668;BME280;57205;51.438;-2.006;2022-09-21T08:12:26;101925.88;;;22.62;49.38
66668;BME280;57205;51.438;-2.006;2022-09-21T08:14:51;101923.09;;;22.84;48.87
66668;BME280;57205;51.438;-2.006;2022-09-21T08:17:17;101919.50;;;23.05;48.52
66668;BME280;57205;51.438;-2.006;2022-09-21T08:19:42;101916.69;;;23.27;47.13
66668;BME280;57205;51.438;-2.006;2022-09-21T08:22:07;101916.44;;;23.55;46.31
66668;BME280;57205;51.438;-2.006;2022-09-21T08:24:33;101907.75;;;23.78;46.01
66668;BME280;57205;51.438;-2.006;2022-09-21T08:26:59;101913.75;;;24.06;45.40
66668;BME280;57205;51.438;-2.006;2022-09-21T08:29:25;101911.00;;;24.32;44.79
66668;BME280;57205;51.438;-2.006;2022-09-21T08:31:51;101908.63;;;24.68;44.21
66668;BME280;57205;51.438;-2.006;2022-09-21T08:34:18;101902.63;;;24.91;43.51
66668;BME280;57205;51.438;-2.006;2022-09-21T08:36:44;101907.88;;;25.34;42.67
66668;BME280;57205;51.438;-2.006;2022-09-21T08:39:11;101906.97;;;25.51;42.22
66668;BME280;57205;51.438;-2.006;2022-09-21T08:44:21;101906.31;;;25.74;41.53
66668;BME280;57205;51.438;-2.006;2022-09-21T08:46:59;101904.22;;;25.92;41.18
66668;BME280;57205;51.438;-2.006;2022-09-21T08:49:26;101905.03;;;26.13;40.74
66668;BME280;57205;51.438;-2.006;2022-09-21T08:52:02;101894.22;;;26.29;40.34
66668;BME280;57205;51.438;-2.006;2022-09-21T08:57:11;101906.91;;;26.33;39.12
66668;BME280;57205;51.438;-2.006;2022-09-21T08:59:44;101904.44;;;26.40;38.07
66668;BME280;57205;51.438;-2.006;2022-09-21T09:21:27;101915.19;;;27.02;36.01
66668;BME280;57205;51.438;-2.006;2022-09-21T09:24:00;101914.03;;;27.15;35.58
66668;BME280;57205;51.438;-2.006;2022-09-21T09:26:33;101910.03;;;27.25;35.56
66668;BME280;57205;51.438;-2.006;2022-09-21T09:32:02;101913.13;;;27.35;34.42
66668;BME280;57205;51.438;-2.006;2022-09-21T09:34:31;101919.53;;;27.51;34.57
66668;BME280;57205;51.438;-2.006;2022-09-21T09:37:14;101918.63;;;27.23;34.21
66668;BME280;57205;51.438;-2.006;2022-09-21T09:39:41;101913.81;;;27.32;33.26
66668;BME280;57205;51.438;-2.006;2022-09-21T09:42:47;101912.91;;;27.16;33.12
66668;BME280;57205;51.438;-2.006;2022-09-21T09:50:57;101913.94;;;27.24;30.65
66668;BME280;57205;51.438;-2.006;2022-09-21T09:53:25;101914.41;;;27.02;31.29
66668;BME280;57205;51.438;-2.006;2022-09-21T09:55:53;101911.28;;;26.91;31.19
66668;BME280;57205;51.438;-2.006;2022-09-21T09:58:40;101916.91;;;26.82;29.68
66668;BME280;57205;51.438;-2.006;2022-09-21T10:01:08;101907.09;;;26.61;30.92
66668;BME280;57205;51.438;-2.006;2022-09-21T10:03:33;101903.06;;;26.46;31.19
66668;BME280;57205;51.438;-2.006;2022-09-21T10:06:00;101902.41;;;26.61;30.90
66668;BME280;57205;51.438;-2.006;2022-09-21T10:10:57;101904.34;;;26.61;29.66
66668;BME280;57205;51.438;-2.006;2022-09-21T10:13:29;101904.56;;;26.56;30.59
66668;BME280;57205;51.438;-2.006;2022-09-21T10:18:46;101897.91;;;26.45;30.50
66668;BME280;57205;51.438;-2.006;2022-09-21T10:21:22;101901.31;;;26.30;31.24
66668;BME280;57205;51.438;-2.006;2022-09-21T10:23:56;101907.91;;;26.17;31.52
66668;BME280;57205;51.438;-2.006;2022-09-21T10:26:33;101896.38;;;26.23;29.78
66668;BME280;57205;51.438;-2.006;2022-09-21T10:29:02;101899.22;;;25.53;31.87
66668;BME280;57205;51.438;-2.006;2022-09-21T10:31:53;101903.91;;;25.23;31.81
66668;BME280;57205;51.438;-2.006;2022-09-21T10:34:20;101902.34;;;25.13;31.23
66668;BME280;57205;51.438;-2.006;2022-09-21T10:36:51;101893.94;;;24.81;32.38
66668;BME280;57205;51.438;-2.006;2022-09-21T10:39:29;101899.81;;;24.71;32.96
66668;BME280;57205;51.438;-2.006;2022-09-21T10:44:32;101889.25;;;24.27;34.44
66668;BME280;57205;51.438;-2.006;2022-09-21T10:47:03;101883.50;;;24.02;34.84
66668;BME280;57205;51.438;-2.006;2022-09-21T10:49:44;101885.88;;;23.95;35.86
66668;BME280;57205;51.438;-2.006;2022-09-21T10:52:10;101885.44;;;23.76;34.53
66668;BME280;57205;51.438;-2.006;2022-09-21T10:54:38;101879.47;;;23.74;34.88
66668;BME280;57205;51.438;-2.006;2022-09-21T10:57:14;101875.28;;;23.43;35.20
66668;BME280;57205;51.438;-2.006;2022-09-21T10:59:41;101867.69;;;23.31;34.89
66668;BME280;57205;51.438;-2.006;2022-09-21T11:05:06;101867.63;;;23.14;35.62
66668;BME280;57205;51.438;-2.006;2022-09-21T11:07:38;101870.38;;;23.22;35.57
66668;BME280;57205;51.438;-2.006;2022-09-21T11:10:20;101868.94;;;23.16;34.93
66668;BME280;57205;51.438;-2.006;2022-09-21T11:12:50;101862.78;;;23.02;35.29
66668;BME280;57205;51.438;-2.006;2022-09-21T11:15:40;101864.72;;;23.02;35.42
66668;BME280;57205;51.438;-2.006;2022-09-21T11:18:20;101860.56;;;23.13;35.51
66668;BME280;57205;51.438;-2.006;2022-09-21T11:21:00;101861.22;;;23.18;35.75
66668;BME280;57205;51.438;-2.006;2022-09-21T11:26:58;101847.84;;;23.08;35.72
66668;BME280;57205;51.438;-2.006;2022-09-21T11:30:05;101842.66;;;22.90;36.38
66668;BME280;57205;51.438;-2.006;2022-09-21T11:32:39;101847.56;;;22.71;36.29
66668;BME280;57205;51.438;-2.006;2022-09-21T11:35:38;101842.94;;;22.41;36.92
66668;BME280;57205;51.438;-2.006;2022-09-21T11:43:48;101839.38;;;21.87;39.09
66668;BME280;57205;51.438;-2.006;2022-09-21T11:46:44;101827.31;;;21.80;39.09
66668;BME280;57205;51.438;-2.006;2022-09-21T11:49:39;101823.84;;;21.88;38.92
66668;BME280;57205;51.438;-2.006;2022-09-21T12:00:18;101817.34;;;21.97;39.41
66668;BME280;57205;51.438;-2.006;2022-09-21T12:10:55;101807.56;;;22.27;38.85
66668;BME280;57205;51.438;-2.006;2022-09-21T12:13:42;101809.56;;;22.44;38.11
66668;BME280;57205;51.438;-2.006;2022-09-21T12:19:05;101809.06;;;22.42;39.60
66668;BME280;57205;51.438;-2.006;2022-09-21T12:21:36;101803.41;;;22.29;37.91
66668;BME280;57205;51.438;-2.006;2022-09-21T12:24:13;101795.81;;;22.18;38.76
66668;BME280;57205;51.438;-2.006;2022-09-21T12:26:50;101796.25;;;22.11;37.73
66668;BME280;57205;51.438;-2.006;2022-09-21T12:32:35;101795.19;;;22.21;39.27
66668;BME280;57205;51.438;-2.006;2022-09-21T12:35:06;101799.06;;;22.28;39.53
66668;BME280;57205;51.438;-2.006;2022-09-21T12:37:44;101792.38;;;22.35;39.28
66668;BME280;57205;51.438;-2.006;2022-09-21T12:40:21;101792.88;;;22.45;37.55
66668;BME280;57205;51.438;-2.006;2022-09-21T12:46:05;101787.47;;;22.54;37.74
66668;BME280;57205;51.438;-2.006;2022-09-21T12:48:35;101779.97;;;22.59;38.07
66668;BME280;57205;51.438;-2.006;2022-09-21T12:51:20;101771.63;;;22.64;36.84
66668;BME280;57205;51.438;-2.006;2022-09-21T12:53:51;101766.03;;;22.69;36.57
66668;BME280;57205;51.438;-2.006;2022-09-21T12:56:38;101768.75;;;22.61;37.04
66668;BME280;57205;51.438;-2.006;2022-09-21T13:02:26;101769.06;;;22.59;37.58
66668;BME280;57205;51.438;-2.006;2022-09-21T13:12:58;101761.53;;;22.25;36.47
66668;BME280;57205;51.438;-2.006;2022-09-21T13:15:32;101772.19;;;22.13;37.74
66668;BME280;57205;51.438;-2.006;2022-09-21T13:18:18;101762.38;;;22.04;37.62
66668;BME280;57205;51.438;-2.006;2022-09-21T13:20:47;101768.28;;;21.97;37.12
66668;BME280;57205;51.438;-2.006;2022-09-21T13:23:36;101761.59;;;21.81;37.54
66668;BME280;57205;51.438;-2.006;2022-09-21T13:26:07;101757.00;;;21.68;38.00
66668;BME280;57205;51.438;-2.006;2022-09-21T13:36:39;101745.34;;;21.76;37.70
66668;BME280;57205;51.438;-2.006;2022-09-21T13:39:13;101751.19;;;21.83;39.42
66668;BME280;57205;51.438;-2.006;2022-09-21T13:41:40;101741.28;;;21.87;37.68
66668;BME280;57205;51.438;-2.006;2022-09-21T13:44:39;101742.22;;;21.83;38.25
66668;BME280;57205;51.438;-2.006;2022-09-21T13:47:06;101735.56;;;21.75;39.00
66668;BME280;57205;51.438;-2.006;2022-09-21T13:49:39;101725.72;;;21.66;39.04
66668;BME280;57205;51.438;-2.006;2022-09-21T14:02:38;101728.78;;;21.42;39.96
66668;BME280;57205;51.438;-2.006;2022-09-21T14:05:30;101718.69;;;21.43;39.10
66668;BME280;57205;51.438;-2.006;2022-09-21T14:07:59;101712.19;;;21.52;38.80
66668;BME280;57205;51.438;-2.006;2022-09-21T14:10:26;101706.41;;;21.54;37.79
66668;BME280;57205;51.438;-2.006;2022-09-21T14:12:53;101706.00;;;21.60;38.39
66668;BME280;57205;51.438;-2.006;2022-09-21T14:18:15;101702.53;;;21.68;38.95
66668;BME280;57205;51.438;-2.006;2022-09-21T14:21:10;101700.84;;;21.81;38.82
66668;BME280;57205;51.438;-2.006;2022-09-21T14:26:34;101696.75;;;22.00;37.82
66668;BME280;57205;51.438;-2.006;2022-09-21T14:29:38;101696.44;;;22.02;38.27
66668;BME280;57205;51.438;-2.006;2022-09-21T14:32:14;101691.22;;;21.83;37.54
66668;BME280;57205;51.438;-2.006;2022-09-21T14:34:41;101692.47;;;21.77;38.42
66668;BME280;57205;51.438;-2.006;2022-09-21T14:37:30;101686.63;;;21.70;37.53
66668;BME280;57205;51.438;-2.006;2022-09-21T14:39:57;101681.81;;;21.67;37.34
66668;BME280;57205;51.438;-2.006;2022-09-21T14:42:27;101672.72;;;21.72;38.23
66668;BME280;57205;51.438;-2.006;2022-09-21T14:44:56;101675.94;;;21.74;37.93
66668;BME280;57205;51.438;-2.006;2022-09-21T14:50:24;101665.91;;;21.83;38.21
66668;BME280;57205;51.438;-2.006;2022-09-21T14:58:39;101671.91;;;21.71;39.27
66668;BME280;57205;51.438;-2.006;2022-09-21T15:06:37;101666.38;;;21.54;40.22
66668;BME280;57205;51.438;-2.006;2022-09-21T15:12:22;101658.47;;;21.44;40.79
66668;BME280;57205;51.438;-2.006;2022-09-21T15:17:55;101654.38;;;21.33;40.09
66668;BME280;57205;51.438;-2.006;2022-09-21T15:20:23;101652.16;;;21.35;40.26
66668;BME280;57205;51.438;-2.006;2022-09-21T15:22:53;101646.19;;;21.33;40.58
66668;BME280;57205;51.438;-2.006;2022-09-21T15:25:19;101647.69;;;21.39;40.17
66668;BME280;57205;51.438;-2.006;2022-09-21T15:27:45;101641.63;;;21.42;40.31
66668;BME280;57205;51.438;-2.006;2022-09-21T15:30:26;101648.03;;;21.46;40.00
66668;BME280;57205;51.438;-2.006;2022-09-21T15:32:58;101646.63;;;21.49;40.34
66668;BME280;57205;51.438;-2.006;2022-09-21T15:35:26;101647.25;;;21.46;40.05
66668;BME280;57205;51.438;-2.006;2022-09-21T15:37:53;101641.88;;;21.32;39.69
66668;BME280;57205;51.438;-2.006;2022-09-21T15:40:20;101647.47;;;21.27;40.00
66668;BME280;57205;51.438;-2.006;2022-09-21T15:45:28;101647.56;;;21.22;43.11
66668;BME280;57205;51.438;-2.006;2022-09-21T15:47:54;101647.22;;;21.15;42.86
66668;BME280;57205;51.438;-2.006;2022-09-21T15:50:23;101639.81;;;21.07;42.63
66668;BME280;57205;51.438;-2.006;2022-09-21T15:53:02;101644.03;;;20.99;43.22
66668;BME280;57205;51.438;-2.006;2022-09-21T15:55:29;101640.63;;;20.94;43.02
66668;BME280;57205;51.438;-2.006;2022-09-21T15:57:57;101642.16;;;20.86;43.51